Time;durP1;ratioP1;P1;durP2;ratioP2;P2;SDS_P1;SDS_P2;PMS_P1;PMS_P2;Temp;Humidity;BMP_temperature;BMP_pressure;BME280_temperature;BME280_humidity;BME280_pressure;Samples;Min_cycle;Max_cycle;Signal;HPM_P1;HPM_P2
2021/03/31 00:00:34;;;;;;;22.98;14.95;;;10.10;73.00;;;;;;5094694;28;20047;-69
2021/03/31 00:03:03;;;;;;;22.60;14.40;;;10.10;73.10;;;;;;5094327;28;20044;-69
2021/03/31 00:05:29;;;;;;;22.25;13.88;;;10.20;73.00;;;;;;5093683;28;20043;-69
2021/03/31 00:07:54;;;;;;;21.50;13.80;;;10.20;72.90;;;;;;5094197;28;20032;-69
2021/03/31 00:10:24;;;;;;;22.67;13.88;;;10.30;72.70;;;;;;5093977;28;20099;-69
2021/03/31 00:12:50;;;;;;;23.65;13.35;;;10.30;72.60;;;;;;5094417;28;20187;-69
2021/03/31 00:15:16;;;;;;;19.27;12.85;;;10.20;72.70;;;;;;5093580;28;20067;-69
2021/03/31 00:17:42;;;;;;;19.98;12.23;;;10.20;72.80;;;;;;5093682;28;20036;-69
2021/03/31 00:20:13;;;;;;;17.58;11.30;;;10.10;73.00;;;;;;5093798;28;20496;-69
2021/03/31 00:22:40;;;;;;;19.50;12.55;;;10.00;73.10;;;;;;5093983;28;20506;-69
2021/03/31 00:25:06;;;;;;;20.60;12.25;;;9.90;73.10;;;;;;5093563;28;20048;-69
2021/03/31 00:27:32;;;;;;;17.15;11.90;;;9.90;73.50;;;;;;5094099;28;20040;-69
2021/03/31 00:29:57;;;;;;;20.70;12.35;;;9.80;73.90;;;;;;5093389;28;20093;-69
2021/03/31 00:32:23;;;;;;;20.27;12.15;;;9.70;74.50;;;;;;5093904;28;20043;-69
2021/03/31 00:34:49;;;;;;;18.55;12.15;;;9.60;74.70;;;;;;5093655;28;20043;-69
2021/03/31 00:37:14;;;;;;;17.98;14.23;;;9.60;75.10;;;;;;5093659;28;20403;-69
2021/03/31 00:39:40;;;;;;;18.30;13.40;;;9.50;75.40;;;;;;5093618;28;20477;-69
2021/03/31 00:42:06;;;;;;;18.58;13.07;;;9.40;75.50;;;;;;5093553;28;20074;-69
2021/03/31 00:44:32;;;;;;;23.02;12.70;;;9.40;76.10;;;;;;5093266;28;20059;-69
2021/03/31 00:46:57;;;;;;;19.23;12.80;;;9.40;76.50;;;;;;5093571;28;20067;-69
2021/03/31 00:49:24;;;;;;;20.88;12.32;;;9.30;76.90;;;;;;5093777;28;20044;-69
2021/03/31 00:51:49;;;;;;;24.90;13.90;;;9.30;78.10;;;;;;5093813;28;20432;-69
2021/03/31 00:54:16;;;;;;;20.52;11.95;;;9.30;77.70;;;;;;5093943;28;20032;-69
2021/03/31 00:56:42;;;;;;;18.15;12.65;;;9.20;78.00;;;;;;5092980;28;20044;-69
2021/03/31 00:59:07;;;;;;;17.25;12.07;;;9.10;78.40;;;;;;5093360;28;20062;-69
2021/03/31 01:01:33;;;;;;;22.05;13.40;;;9.10;78.80;;;;;;5075552;28;20032;-69
2021/03/31 01:03:59;;;;;;;23.63;13.93;;;9.10;79.10;;;;;;5093667;28;20032;-69
2021/03/31 01:06:26;;;;;;;20.65;13.25;;;9.10;79.30;;;;;;5075187;28;20468;-69
2021/03/31 01:08:51;;;;;;;17.75;12.65;;;9.20;79.80;;;;;;5093076;28;20576;-69
2021/03/31 01:11:33;;;;;;;18.63;12.95;;;9.10;79.50;;;;;;5093144;28;20040;-69
2021/03/31 01:14:05;;;;;;;21.48;13.50;;;9.00;79.50;;;;;;5093569;28;20040;-69
2021/03/31 01:17:01;;;;;;;20.95;13.50;;;9.00;79.60;;;;;;5092878;28;20040;-69
2021/03/31 01:19:35;;;;;;;19.75;13.90;;;9.00;79.50;;;;;;5089038;28;20066;-69
2021/03/31 01:22:51;;;;;;;22.10;13.73;;;9.00;79.60;;;;;;5093116;28;20085;-69
2021/03/31 01:25:29;;;;;;;19.33;13.35;;;9.00;80.20;;;;;;5092901;28;20450;-69
2021/03/31 01:28:27;;;;;;;25.05;13.68;;;8.90;79.90;;;;;;5093609;28;20032;-69
2021/03/31 01:31:06;;;;;;;23.05;14.18;;;8.90;80.40;;;;;;5093087;28;20040;-69
2021/03/31 01:33:38;;;;;;;35.13;15.50;;;8.90;79.80;;;;;;5093129;28;20044;-69
2021/03/31 01:36:04;;;;;;;21.27;13.52;;;8.90;79.80;;;;;;5092693;28;20123;-69
2021/03/31 01:38:30;;;;;;;25.10;15.25;;;8.90;80.20;;;;;;5058319;28;20075;-69
2021/03/31 01:41:01;;;;;;;21.88;13.77;;;8.80;80.90;;;;;;5094379;28;20040;-69
2021/03/31 01:43:31;;;;;;;23.45;13.40;;;8.80;81.30;;;;;;5097173;28;20043;-69
2021/03/31 01:45:57;;;;;;;22.38;13.90;;;8.70;80.80;;;;;;5096903;28;20044;-69
2021/03/31 01:48:27;;;;;;;20.35;13.73;;;8.70;80.70;;;;;;5097032;28;20376;-69
2021/03/31 01:51:09;;;;;;;23.40;14.32;;;8.70;80.60;;;;;;5097136;28;20033;-69
2021/03/31 01:53:35;;;;;;;25.30;14.60;;;8.70;80.80;;;;;;5096644;28;20066;-69
2021/03/31 01:56:01;;;;;;;21.35;14.82;;;8.60;80.70;;;;;;5096386;28;20044;-69
2021/03/31 01:58:30;;;;;;;21.48;13.57;;;8.60;81.70;;;;;;5096921;28;20040;-69
2021/03/31 02:00:57;;;;;;;21.48;13.40;;;8.60;81.20;;;;;;5096856;28;20032;-69
2021/03/31 02:03:23;;;;;;;22.30;14.13;;;8.60;81.40;;;;;;5096706;28;20043;-69
2021/03/31 02:05:49;;;;;;;22.63;13.35;;;8.60;81.60;;;;;;5096378;28;20070;-69
2021/03/31 02:08:16;;;;;;;20.17;14.15;;;8.60;81.90;;;;;;5096336;28;20032;-69
2021/03/31 02:10:43;;;;;;;22.38;12.50;;;8.60;81.80;;;;;;5096776;28;20090;-69
2021/03/31 02:13:10;;;;;;;22.38;14.43;;;8.60;81.90;;;;;;5078568;28;20494;-69
2021/03/31 02:15:37;;;;;;;18.23;13.27;;;8.60;81.80;;;;;;5095853;28;20044;-69
2021/03/31 02:18:08;;;;;;;20.73;14.10;;;8.50;81.60;;;;;;5096012;28;20055;-69
2021/03/31 02:20:34;;;;;;;25.15;14.57;;;8.50;81.60;;;;;;5096106;28;20032;-69
2021/03/31 02:23:01;;;;;;;21.08;12.73;;;8.50;81.90;;;;;;5096115;28;20115;-69
2021/03/31 02:25:27;;;;;;;25.00;13.23;;;8.50;81.90;;;;;;5095810;28;20044;-69
2021/03/31 02:27:53;;;;;;;25.17;14.63;;;8.50;82.10;;;;;;5096567;28;20035;-69
2021/03/31 02:30:22;;;;;;;25.52;15.27;;;8.50;82.10;;;;;;5095961;28;20047;-69
2021/03/31 02:32:51;;;;;;;22.05;13.73;;;8.50;82.10;;;;;;5095991;28;20079;-69
2021/03/31 02:35:21;;;;;;;24.63;14.88;;;8.50;81.50;;;;;;5095582;28;20032;-69
2021/03/31 02:37:50;;;;;;;21.23;13.73;;;8.50;81.30;;;;;;5095743;28;20040;-69
2021/03/31 02:40:17;;;;;;;25.75;16.05;;;8.50;81.30;;;;;;5095781;28;20040;-69
2021/03/31 02:42:45;;;;;;;29.65;16.00;;;8.50;80.40;;;;;;5096118;28;20040;-69
2021/03/31 02:45:14;;;;;;;29.90;17.45;;;8.60;79.80;;;;;;5095286;28;20042;-69
2021/03/31 02:47:42;;;;;;;26.98;16.08;;;8.70;79.10;;;;;;5095444;28;20036;-69
2021/03/31 02:50:12;;;;;;;29.25;16.00;;;8.80;78.40;;;;;;5095680;28;20035;-69
2021/03/31 02:52:39;;;;;;;28.73;16.23;;;8.90;77.80;;;;;;5095656;28;20044;-69
2021/03/31 02:55:07;;;;;;;32.22;16.73;;;8.90;77.20;;;;;;5077412;28;20032;-69
2021/03/31 02:57:36;;;;;;;26.20;17.55;;;9.00;76.40;;;;;;5095489;28;20068;-69
2021/03/31 03:00:04;;;;;;;26.60;16.15;;;9.00;76.10;;;;;;5095703;28;20044;-69
2021/03/31 03:02:30;;;;;;;21.33;15.13;;;9.00;76.20;;;;;;5095478;28;20036;-69
2021/03/31 03:04:56;;;;;;;24.58;15.35;;;8.90;76.60;;;;;;5095107;28;20040;-69
2021/03/31 03:07:22;;;;;;;21.13;14.57;;;8.90;77.00;;;;;;5095303;28;20040;-69
2021/03/31 03:09:48;;;;;;;23.23;14.85;;;8.80;77.40;;;;;;5095058;28;20043;-69
2021/03/31 03:12:17;;;;;;;27.25;16.25;;;8.70;77.80;;;;;;5095308;28;20407;-69
2021/03/31 03:14:47;;;;;;;21.23;13.95;;;8.60;77.80;;;;;;5094796;28;20094;-69
2021/03/31 03:17:13;;;;;;;24.50;14.25;;;8.50;78.30;;;;;;5095558;28;20051;-69
2021/03/31 03:19:38;;;;;;;24.52;14.23;;;8.40;78.70;;;;;;5095308;28;20044;-69
2021/03/31 03:22:05;;;;;;;22.35;14.45;;;8.40;78.90;;;;;;5095458;28;20452;-69
2021/03/31 03:24:32;;;;;;;22.58;14.52;;;8.30;79.10;;;;;;5094698;28;20054;-69
2021/03/31 03:26:58;;;;;;;21.88;13.95;;;8.30;79.40;;;;;;5094868;28;20036;-69
2021/03/31 03:29:26;;;;;;;21.13;14.57;;;8.20;79.50;;;;;;5095103;28;20044;-69
2021/03/31 03:31:53;;;;;;;22.75;13.77;;;8.10;79.40;;;;;;5095068;28;20052;-69
2021/03/31 03:34:19;;;;;;;22.45;14.13;;;8.10;79.40;;;;;;5095022;28;20063;-69
2021/03/31 03:36:45;;;;;;;20.50;14.60;;;8.00;79.50;;;;;;5094237;28;20036;-69
2021/03/31 03:39:11;;;;;;;25.27;14.32;;;8.00;79.70;;;;;;5094906;28;20409;-69
2021/03/31 03:41:37;;;;;;;23.45;14.18;;;7.90;79.90;;;;;;5094744;28;20161;-69
2021/03/31 03:44:04;;;;;;;19.80;13.70;;;7.90;79.90;;;;;;5094471;28;20040;-69
2021/03/31 03:46:32;;;;;;;21.75;14.48;;;7.80;80.00;;;;;;5094148;28;20040;-69
2021/03/31 03:48:59;;;;;;;23.95;14.05;;;7.80;80.30;;;;;;5094360;28;20105;-69
2021/03/31 03:51:26;;;;;;;23.50;15.63;;;7.80;80.30;;;;;;5094523;28;20040;-69
2021/03/31 03:53:55;;;;;;;25.92;14.80;;;7.80;80.40;;;;;;5094516;28;20048;-69
2021/03/31 03:56:22;;;;;;;25.13;15.18;;;7.70;80.60;;;;;;5075957;28;20472;-69
2021/03/31 03:58:48;;;;;;;24.73;15.80;;;7.70;80.70;;;;;;5094326;28;20038;-69
2021/03/31 04:01:14;;;;;;;24.35;15.70;;;7.70;80.80;;;;;;5094254;28;20040;-67
2021/03/31 04:03:41;;;;;;;25.00;14.43;;;7.70;81.00;;;;;;5093580;28;20041;-67
2021/03/31 04:06:07;;;;;;;26.92;15.50;;;7.70;81.10;;;;;;5075488;28;20063;-67
2021/03/31 04:08:33;;;;;;;27.25;15.25;;;7.70;81.00;;;;;;5094102;28;20416;-67
2021/03/31 04:11:01;;;;;;;28.67;16.45;;;7.70;80.90;;;;;;5094097;28;20064;-69
2021/03/31 04:13:31;;;;;;;28.10;15.82;;;7.60;80.60;;;;;;5093875;28;20036;-68
2021/03/31 04:16:09;;;;;;;27.23;16.35;;;7.60;80.60;;;;;;5093660;28;20036;-67
2021/03/31 04:18:39;;;;;;;25.58;16.80;;;7.60;80.80;;;;;;5093838;28;20032;-67
2021/03/31 04:21:06;;;;;;;27.67;16.60;;;7.60;80.90;;;;;;5093885;28;20456;-67
2021/03/31 04:23:32;;;;;;;30.15;16.48;;;7.60;80.90;;;;;;5093957;28;20032;-68
2021/03/31 04:25:58;;;;;;;27.25;16.30;;;7.60;80.90;;;;;;5093797;28;20156;-67
2021/03/31 04:28:26;;;;;;;31.08;17.42;;;7.50;81.00;;;;;;5093760;28;20111;-67
2021/03/31 04:30:54;;;;;;;25.60;15.70;;;7.50;81.00;;;;;;5093692;28;20111;-67
2021/03/31 04:33:22;;;;;;;25.45;16.02;;;7.50;81.10;;;;;;5093609;28;20036;-68
2021/03/31 04:35:47;;;;;;;25.00;15.73;;;7.60;81.10;;;;;;5093424;28;20040;-67
2021/03/31 04:38:14;;;;;;;24.08;14.18;;;7.50;81.20;;;;;;5093634;28;20044;-67
2021/03/31 04:40:51;;;;;;;28.17;15.68;;;7.40;81.20;;;;;;5093777;28;20529;-67
2021/03/31 04:43:16;;;;;;;28.23;15.63;;;7.40;81.30;;;;;;5093511;28;20055;-67
2021/03/31 04:45:42;;;;;;;26.05;14.40;;;7.40;81.40;;;;;;5093314;28;20028;-67
2021/03/31 04:48:08;;;;;;;25.58;16.02;;;7.40;81.50;;;;;;5093546;28;20036;-67
2021/03/31 04:50:34;;;;;;;28.00;16.52;;;7.30;81.60;;;;;;5093281;28;20058;-67
2021/03/31 04:52:59;;;;;;;27.15;17.10;;;7.30;81.40;;;;;;5093685;28;20040;-67
2021/03/31 04:55:26;;;;;;;25.20;16.42;;;7.20;82.10;;;;;;5093112;28;20054;-67
2021/03/31 04:57:51;;;;;;;31.52;18.20;;;7.20;81.50;;;;;;5093554;28;20040;-67
2021/03/31 05:00:17;;;;;;;32.55;17.30;;;7.20;81.60;;;;;;5093368;28;20055;-68
2021/03/31 05:02:43;;;;;;;29.92;17.10;;;7.20;81.70;;;;;;5093450;28;20032;-68
2021/03/31 05:05:09;;;;;;;30.88;17.02;;;7.20;81.80;;;;;;5093055;28;20117;-68
2021/03/31 05:07:35;;;;;;;29.63;18.00;;;7.20;81.90;;;;;;5093023;28;20492;-68
2021/03/31 05:10:00;;;;;;;27.00;16.65;;;7.20;81.70;;;;;;5093456;28;20074;-68
2021/03/31 05:12:26;;;;;;;29.27;16.70;;;7.20;81.80;;;;;;5093345;28;20490;-68
2021/03/31 05:14:52;;;;;;;28.38;16.77;;;7.10;81.90;;;;;;5093136;28;20063;-68
2021/03/31 05:17:18;;;;;;;26.65;16.15;;;7.10;82.00;;;;;;5097066;28;20376;-69
2021/03/31 05:19:43;;;;;;;26.60;16.45;;;7.10;82.10;;;;;;5079219;28;20121;-68
2021/03/31 05:22:09;;;;;;;28.38;16.90;;;7.10;82.10;;;;;;5097494;28;20044;-68
2021/03/31 05:24:34;;;;;;;33.70;17.25;;;7.10;82.10;;;;;;5097210;28;20057;-68
2021/03/31 05:27:01;;;;;;;27.67;17.63;;;7.00;82.00;;;;;;5097984;28;20036;-68
2021/03/31 05:29:27;;;;;;;29.05;18.00;;;7.00;82.20;;;;;;5097096;28;20395;-68
2021/03/31 05:31:53;;;;;;;34.53;19.75;;;7.00;82.40;;;;;;5096998;28;20040;-68
2021/03/31 05:34:18;;;;;;;35.70;19.73;;;7.00;82.40;;;;;;5097135;28;20097;-69
2021/03/31 05:36:44;;;;;;;35.03;19.98;;;7.10;82.60;;;;;;5097037;28;20040;-68
2021/03/31 05:39:10;;;;;;;37.00;20.10;;;7.10;82.60;;;;;;5096981;28;20046;-68
2021/03/31 05:41:35;;;;;;;35.28;19.70;;;7.10;82.70;;;;;;5097097;28;20028;-68
2021/03/31 05:44:03;;;;;;;39.38;20.27;;;7.20;82.60;;;;;;5096669;28;20051;-68
2021/03/31 05:46:29;;;;;;;34.63;19.88;;;7.20;82.60;;;;;;5096349;28;20105;-68
2021/03/31 05:48:57;;;;;;;36.58;19.60;;;7.20;82.60;;;;;;5096543;28;20036;-68
2021/03/31 05:51:22;;;;;;;35.70;18.73;;;7.20;82.80;;;;;;5078525;28;20040;-68
2021/03/31 05:53:48;;;;;;;32.10;19.85;;;7.20;82.50;;;;;;5096783;28;20532;-68
2021/03/31 05:56:16;;;;;;;35.97;19.88;;;7.30;82.50;;;;;;5096727;28;20054;-68
2021/03/31 05:58:46;;;;;;;33.38;20.20;;;7.30;82.50;;;;;;5096593;28;20071;-69
2021/03/31 06:01:14;;;;;;;32.58;19.70;;;7.20;82.50;;;;;;5097104;28;20115;-70
2021/03/31 06:03:40;;;;;;;31.90;18.88;;;7.30;82.70;;;;;;5097032;28;20115;-70
2021/03/31 06:06:06;;;;;;;33.75;20.70;;;7.40;82.70;;;;;;5096129;28;20116;-70
2021/03/31 06:08:32;;;;;;;36.45;21.33;;;7.50;82.40;;;;;;5096496;28;20036;-70
2021/03/31 06:11:01;;;;;;;33.45;20.20;;;7.50;82.10;;;;;;5096161;28;20486;-68
2021/03/31 06:13:56;;;;;;;34.38;20.13;;;7.60;81.70;;;;;;5096578;28;20044;-68
2021/03/31 06:16:29;;;;;;;33.85;19.85;;;7.80;81.40;;;;;;5096111;28;20052;-67
2021/03/31 06:18:55;;;;;;;39.00;21.10;;;7.90;80.90;;;;;;5077981;28;20499;-67
2021/03/31 06:21:21;;;;;;;32.53;20.17;;;8.10;80.20;;;;;;5096564;28;20285;-69
2021/03/31 06:23:53;;;;;;;34.00;20.17;;;8.30;79.50;;;;;;5096731;28;20048;-67
2021/03/31 06:26:28;;;;;;;32.97;20.15;;;8.50;78.80;;;;;;5095438;28;20059;-67
2021/03/31 06:28:59;;;;;;;34.30;20.67;;;8.80;77.80;;;;;;5095976;28;20048;-68
2021/03/31 06:31:33;;;;;;;34.15;20.38;;;9.10;76.90;;;;;;5096212;28;20044;-68
2021/03/31 06:34:08;;;;;;;32.38;20.55;;;9.40;76.10;;;;;;5095941;28;20039;-67
2021/03/31 06:36:38;;;;;;;29.17;19.95;;;9.70;75.10;;;;;;5095083;28;20116;-68
2021/03/31 06:39:32;;;;;;;30.88;20.52;;;9.90;74.30;;;;;;5095876;28;20388;-67
2021/03/31 06:42:01;;;;;;;26.80;18.92;;;10.20;72.50;;;;;;5095761;28;20028;-68
2021/03/31 06:47:27;;;;;;;29.52;17.80;;;10.70;70.90;;;;;;5095939;28;20043;-68
2021/03/31 06:49:54;;;;;;;26.20;18.05;;;10.90;70.90;;;;;;5095860;28;20032;-68
2021/03/31 06:52:20;;;;;;;33.58;19.27;;;11.20;70.10;;;;;;5095548;28;20563;-68
2021/03/31 06:54:57;;;;;;;26.67;18.00;;;11.50;69.70;;;;;;5095162;28;20040;-68
2021/03/31 06:57:27;;;;;;;26.77;18.23;;;11.70;69.00;;;;;;5095443;28;20036;-68
2021/03/31 07:00:08;;;;;;;30.08;17.73;;;11.80;67.40;;;;;;5095631;28;20048;-68
2021/03/31 07:02:36;;;;;;;26.98;18.65;;;12.10;65.90;;;;;;5095452;28;20036;-68
2021/03/31 07:05:06;;;;;;;26.23;17.48;;;12.20;65.50;;;;;;5095260;28;20442;-68
2021/03/31 07:07:36;;;;;;;32.30;19.67;;;12.40;65.30;;;;;;5095185;28;20468;-68
2021/03/31 07:10:09;;;;;;;34.00;19.17;;;12.60;64.30;;;;;;5095161;28;20040;-68
2021/03/31 07:12:42;;;;;;;32.67;18.10;;;12.70;63.40;;;;;;5077056;28;20089;-68
2021/03/31 07:15:10;;;;;;;26.90;18.73;;;12.90;62.10;;;;;;5094833;28;20090;-68
2021/03/31 07:17:39;;;;;;;29.02;17.75;;;13.10;62.10;;;;;;5094896;28;20036;-68
2021/03/31 07:20:06;;;;;;;24.55;17.85;;;13.20;61.50;;;;;;5095047;28;20048;-68
2021/03/31 07:22:32;;;;;;;29.75;18.95;;;13.40;61.20;;;;;;5094852;28;20484;-68
2021/03/31 07:24:58;;;;;;;30.30;19.85;;;13.60;60.80;;;;;;5094561;28;20060;-68
2021/03/31 07:27:25;;;;;;;31.60;19.67;;;13.60;60.70;;;;;;5094862;28;20447;-68
2021/03/31 07:30:10;;;;;;;28.50;19.15;;;13.90;60.30;;;;;;5094965;28;20051;-68
2021/03/31 07:32:52;;;;;;;27.80;19.95;;;14.00;60.10;;;;;;5095218;28;20089;-68
2021/03/31 07:35:20;;;;;;;28.40;17.98;;;14.30;59.00;;;;;;5094349;28;20402;-69
2021/03/31 07:37:47;;;;;;;24.20;17.42;;;14.40;58.40;;;;;;5094162;28;20040;-68
2021/03/31 07:40:15;;;;;;;26.33;16.25;;;14.70;57.70;;;;;;5076829;28;20472;-68
2021/03/31 07:42:53;;;;;;;32.40;18.42;;;14.90;56.90;;;;;;5094586;28;20082;-68
2021/03/31 07:45:25;;;;;;;28.35;17.73;;;15.10;56.00;;;;;;5094438;28;20095;-69
2021/03/31 07:47:52;;;;;;;28.58;18.17;;;15.30;56.40;;;;;;5094493;28;20492;-69
2021/03/31 07:50:19;;;;;;;26.27;17.58;;;15.50;55.60;;;;;;5094608;28;20047;-68
2021/03/31 07:52:55;;;;;;;25.60;17.15;;;15.60;55.50;;;;;;5076800;28;20052;-69
2021/03/31 07:55:38;;;;;;;28.25;19.17;;;15.70;54.60;;;;;;5094067;28;20032;-69
2021/03/31 07:58:17;;;;;;;24.27;17.45;;;15.80;55.30;;;;;;5091053;28;20476;-68
2021/03/31 08:00:54;;;;;;;27.65;18.38;;;15.90;55.00;;;;;;5074379;28;20052;-69
2021/03/31 08:03:28;;;;;;;29.42;18.23;;;16.00;55.90;;;;;;5073705;28;20455;-69
2021/03/31 08:06:08;;;;;;;29.65;17.98;;;16.00;55.70;;;;;;5073323;28;20060;-68
2021/03/31 08:08:35;;;;;;;28.90;18.23;;;16.20;56.10;;;;;;5073813;28;20040;-68
2021/03/31 08:11:01;;;;;;;25.38;17.80;;;16.40;56.00;;;;;;5074061;28;20047;-68
2021/03/31 08:13:35;;;;;;;28.15;17.92;;;16.60;55.20;;;;;;5074114;28;20044;-69
2021/03/31 08:16:23;;;;;;;30.13;19.50;;;16.80;54.20;;;;;;5073171;28;20040;-69
2021/03/31 08:18:51;;;;;;;28.83;18.05;;;16.90;53.30;;;;;;5072204;28;20056;-69
2021/03/31 08:21:21;;;;;;;29.48;19.33;;;17.10;53.60;;;;;;5053744;28;20037;-69
2021/03/31 08:23:49;;;;;;;25.70;18.52;;;17.30;53.80;;;;;;5071785;28;20076;-69
2021/03/31 08:26:32;;;;;;;24.98;17.38;;;17.40;53.10;;;;;;5071906;28;20127;-69
2021/03/31 08:29:03;;;;;;;27.63;18.50;;;17.50;51.80;;;;;;5072034;28;20036;-69
2021/03/31 08:31:41;;;;;;;31.02;19.60;;;17.80;51.20;;;;;;5072299;28;20072;-69
2021/03/31 08:34:13;;;;;;;28.67;18.75;;;18.00;51.30;;;;;;5072809;28;20086;-69
2021/03/31 08:36:39;;;;;;;26.90;18.63;;;18.00;50.40;;;;;;5073189;28;20036;-69
2021/03/31 08:39:07;;;;;;;27.35;19.50;;;18.00;49.70;;;;;;5055537;28;20036;-69
2021/03/31 08:41:36;;;;;;;28.75;18.67;;;18.10;49.90;;;;;;5073413;28;20116;-69
2021/03/31 08:47:15;;;;;;;28.83;18.85;;;18.50;48.00;;;;;;5069867;28;20122;-69
2021/03/31 08:49:43;;;;;;;30.05;19.27;;;18.80;49.30;;;;;;5073525;28;20037;-69
2021/03/31 08:52:11;;;;;;;26.08;18.48;;;18.80;49.10;;;;;;5073430;28;20068;-69
2021/03/31 08:54:44;;;;;;;26.98;18.20;;;18.70;48.60;;;;;;5073119;28;20464;-69
2021/03/31 08:57:14;;;;;;;34.80;20.10;;;18.90;47.80;;;;;;5073728;28;20060;-69
2021/03/31 08:59:47;;;;;;;26.73;19.13;;;19.00;48.00;;;;;;5073231;28;20045;-69
2021/03/31 09:02:17;;;;;;;26.45;17.80;;;19.10;48.20;;;;;;5073768;28;20373;-69
2021/03/31 09:04:43;;;;;;;25.88;19.10;;;19.30;48.10;;;;;;5072447;28;20124;-68
2021/03/31 09:07:10;;;;;;;25.45;18.52;;;19.20;48.30;;;;;;5073128;28;20453;-69
2021/03/31 09:09:40;;;;;;;29.38;20.27;;;19.30;47.20;;;;;;5073464;28;20075;-68
2021/03/31 09:12:08;;;;;;;31.02;19.48;;;19.30;46.30;;;;;;5073597;28;20055;-71
2021/03/31 09:14:36;;;;;;;28.02;19.67;;;19.30;47.10;;;;;;5072629;28;20090;-72
2021/03/31 09:17:04;;;;;;;25.83;18.92;;;19.30;47.30;;;;;;5072883;28;20376;-72
2021/03/31 09:19:35;;;;;;;26.05;19.17;;;19.30;47.60;;;;;;5072823;28;20037;-72
2021/03/31 09:22:15;;;;;;;23.85;17.90;;;19.20;46.50;;;;;;5073281;28;20094;-72
2021/03/31 09:24:49;;;;;;;27.05;18.80;;;19.20;47.20;;;;;;5072519;28;20114;-72
2021/03/31 09:27:20;;;;;;;29.00;20.25;;;19.10;47.50;;;;;;5072960;28;20044;-72
2021/03/31 09:29:47;;;;;;;28.40;18.65;;;19.20;46.30;;;;;;5073222;28;20068;-72
2021/03/31 09:32:20;;;;;;;33.25;20.95;;;19.20;46.80;;;;;;5072773;28;20037;-72
2021/03/31 09:34:46;;;;;;;29.75;20.45;;;19.20;47.10;;;;;;5072437;28;20041;-71
2021/03/31 09:37:14;;;;;;;29.17;19.98;;;19.20;46.80;;;;;;5072721;28;20041;-71
2021/03/31 09:39:59;;;;;;;31.33;20.33;;;19.20;47.50;;;;;;5072900;28;20519;-71
2021/03/31 09:42:30;;;;;;;31.65;20.60;;;19.30;45.60;;;;;;5038168;28;20408;-71
2021/03/31 09:44:56;;;;;;;30.40;21.63;;;19.40;46.00;;;;;;5072268;28;20055;-71
2021/03/31 09:47:24;;;;;;;35.80;20.23;;;19.30;46.10;;;;;;5072688;28;20040;-71
2021/03/31 09:49:52;;;;;;;28.08;20.08;;;19.50;46.10;;;;;;5072597;28;20048;-71
2021/03/31 09:52:25;;;;;;;28.42;19.42;;;19.50;46.10;;;;;;5054658;28;20479;-72
2021/03/31 09:54:51;;;;;;;35.47;21.50;;;19.50;46.40;;;;;;5072458;28;20037;-71
2021/03/31 09:57:16;;;;;;;31.48;21.60;;;19.60;47.30;;;;;;5072310;28;20036;-71
2021/03/31 09:59:42;;;;;;;30.83;20.45;;;19.70;46.70;;;;;;5072841;28;20040;-72
2021/03/31 10:02:09;;;;;;;33.97;21.33;;;19.70;46.50;;;;;;5074394;28;20036;-72
2021/03/31 10:04:40;;;;;;;28.65;19.83;;;19.70;47.20;;;;;;5075951;28;20044;-72
2021/03/31 10:07:20;;;;;;;29.05;21.05;;;19.70;47.00;;;;;;5076241;28;20036;-72
2021/03/31 10:09:47;;;;;;;30.73;19.98;;;19.80;46.60;;;;;;5076039;28;20119;-72
2021/03/31 10:12:25;;;;;;;33.92;21.52;;;19.80;46.80;;;;;;5076002;28;20037;-72
2021/03/31 10:14:55;;;;;;;31.80;20.48;;;19.70;45.80;;;;;;5057970;28;20051;-72
2021/03/31 10:17:23;;;;;;;31.17;21.15;;;19.70;46.30;;;;;;5075717;28;20037;-73
2021/03/31 10:19:49;;;;;;;32.20;20.83;;;19.80;46.30;;;;;;5075520;28;20077;-72
2021/03/31 10:22:16;;;;;;;29.70;19.25;;;20.20;45.70;;;;;;5076192;28;20051;-73
2021/03/31 10:24:45;;;;;;;28.80;20.38;;;20.30;45.60;;;;;;5075709;28;20044;-73
2021/03/31 10:27:14;;;;;;;27.15;19.13;;;20.40;45.30;;;;;;5075684;28;20048;-73
2021/03/31 10:29:50;;;;;;;30.10;20.77;;;20.50;44.70;;;;;;5076038;28;20124;-73
2021/03/31 10:32:18;;;;;;;28.52;20.40;;;20.50;42.80;;;;;;5076021;28;20040;-73
2021/03/31 10:34:53;;;;;;;29.90;20.25;;;20.60;41.70;;;;;;5075439;28;20049;-73
2021/03/31 10:37:35;;;;;;;30.77;19.75;;;20.70;40.90;;;;;;5075796;28;20033;-73
2021/03/31 10:53:56;;;;;;;33.47;19.55;;;21.20;41.80;;;;;;5075437;28;20048;-73
2021/03/31 10:56:23;;;;;;;28.08;19.80;;;21.20;41.90;;;;;;5074818;28;20090;-73
2021/03/31 10:58:49;;;;;;;29.92;19.45;;;21.20;40.70;;;;;;5075080;28;20431;-73
2021/03/31 11:01:15;;;;;;;30.42;20.67;;;21.20;40.20;;;;;;5075259;28;20124;-73
2021/03/31 11:03:41;;;;;;;33.30;20.73;;;21.20;40.30;;;;;;5075436;28;20071;-73
2021/03/31 11:06:08;;;;;;;32.05;21.45;;;21.20;39.00;;;;;;5074666;28;20040;-73
2021/03/31 11:08:33;;;;;;;30.45;19.80;;;21.10;38.30;;;;;;5075377;28;20043;-73
2021/03/31 11:10:59;;;;;;;30.75;21.02;;;21.10;37.60;;;;;;5075167;28;20040;-73
2021/03/31 11:13:25;;;;;;;30.80;20.15;;;21.20;37.60;;;;;;5073659;28;20043;-73
2021/03/31 11:16:13;;;;;;;28.58;20.08;;;21.20;37.10;;;;;;5074384;28;20044;-73
2021/03/31 11:26:33;;;;;;;28.75;18.23;;;21.20;35.70;;;;;;5074283;28;20066;-73
2021/03/31 11:28:59;;;;;;;30.55;19.92;;;21.20;33.70;;;;;;5074846;28;20040;-73
2021/03/31 11:31:45;;;;;;;30.25;20.30;;;21.20;33.90;;;;;;5059424;28;20109;-73
2021/03/31 11:34:10;;;;;;;32.45;21.42;;;21.30;34.40;;;;;;5074204;28;20040;-73
2021/03/31 11:36:36;;;;;;;33.05;21.67;;;21.30;34.20;;;;;;5073939;28;20109;-73
2021/03/31 11:39:22;;;;;;;31.00;21.50;;;21.30;34.60;;;;;;5059729;28;20052;-73
2021/03/31 11:41:47;;;;;;;31.77;21.85;;;21.30;34.60;;;;;;5074150;28;20028;-72
2021/03/31 11:44:13;;;;;;;33.25;21.55;;;21.30;34.80;;;;;;5074157;28;20484;-73
2021/03/31 11:46:39;;;;;;;35.58;22.75;;;21.40;35.10;;;;;;5073788;28;20476;-73
2021/03/31 11:49:05;;;;;;;41.90;23.83;;;21.50;36.00;;;;;;5073896;28;20400;-73
2021/03/31 11:51:31;;;;;;;40.20;23.95;;;21.60;35.70;;;;;;5074216;28;20392;-73
2021/03/31 11:53:56;;;;;;;38.30;22.75;;;21.60;35.70;;;;;;5073909;28;20043;-73
2021/03/31 11:56:42;;;;;;;34.35;22.77;;;21.60;35.60;;;;;;5058539;28;20456;-73
2021/03/31 11:59:08;;;;;;;35.35;23.23;;;21.60;35.80;;;;;;5073706;28;20112;-74
2021/03/31 12:01:35;;;;;;;42.00;24.40;;;21.70;36.00;;;;;;5073959;28;20464;-74
2021/03/31 12:04:20;;;;;;;32.45;20.67;;;21.70;34.30;;;;;;5045502;28;20052;-73
2021/03/31 12:06:46;;;;;;;31.50;21.73;;;21.70;34.30;;;;;;5073393;28;20047;-74
2021/03/31 12:09:12;;;;;;;34.13;21.95;;;21.80;34.00;;;;;;5073777;28;20037;-74
2021/03/31 12:11:59;;;;;;;33.38;21.70;;;21.70;33.90;;;;;;5045107;28;20051;-75
2021/03/31 12:14:24;;;;;;;37.03;22.33;;;21.60;33.90;;;;;;5073369;28;20534;-76
2021/03/31 12:16:50;;;;;;;33.88;19.98;;;21.60;31.50;;;;;;5073535;28;20037;-73
2021/03/31 12:19:16;;;;;;;31.08;19.75;;;21.60;31.90;;;;;;5073384;28;20040;-73
2021/03/31 12:21:41;;;;;;;33.78;21.08;;;21.60;32.70;;;;;;5073585;28;20037;-74
2021/03/31 12:24:07;;;;;;;29.70;19.40;;;21.60;33.90;;;;;;5073000;28;20041;-74
2021/03/31 12:27:00;;;;;;;30.65;19.52;;;21.70;33.60;;;;;;5058794;28;20044;-73
2021/03/31 12:29:46;;;;;;;32.50;20.45;;;21.70;34.30;;;;;;5055175;28;20067;-73
2021/03/31 12:32:32;;;;;;;28.08;19.45;;;21.70;32.80;;;;;;5059271;28;20091;-73
2021/03/31 12:35:18;;;;;;;32.83;21.83;;;21.80;33.00;;;;;;5058353;28;20097;-73
2021/03/31 12:38:04;;;;;;;30.58;20.83;;;21.80;33.70;;;;;;5059123;28;20036;-74
2021/03/31 12:40:50;;;;;;;30.67;19.83;;;21.90;34.20;;;;;;5058503;28;20045;-73
2021/03/31 12:43:15;;;;;;;29.58;20.65;;;21.90;33.90;;;;;;5073390;28;20115;-73
2021/03/31 12:46:01;;;;;;;29.55;19.70;;;22.00;34.50;;;;;;5058278;28;20041;-73
2021/03/31 12:48:46;;;;;;;30.52;20.10;;;22.00;33.50;;;;;;5059018;28;20400;-73
2021/03/31 12:51:15;;;;;;;27.13;17.38;;;22.00;33.30;;;;;;5073112;28;20037;-73
2021/03/31 12:54:23;;;;;;;27.65;17.95;;;21.90;35.10;;;;;;5058849;28;20055;-73
2021/03/31 12:56:49;;;;;;;29.38;17.88;;;22.10;33.50;;;;;;5073260;28;20486;-73
2021/03/31 12:59:15;;;;;;;26.00;17.90;;;22.00;35.20;;;;;;5055352;28;20111;-73
2021/03/31 13:01:41;;;;;;;27.70;17.95;;;22.00;34.80;;;;;;5073364;28;20048;-73
2021/03/31 13:04:07;;;;;;;30.70;18.73;;;22.00;35.00;;;;;;5073093;28;20437;-73
2021/03/31 13:06:35;;;;;;;32.08;19.35;;;22.00;33.40;;;;;;5072608;28;20544;-73
2021/03/31 13:09:02;;;;;;;28.30;18.95;;;22.00;33.50;;;;;;5073106;28;20041;-73
2021/03/31 13:11:28;;;;;;;31.35;20.73;;;22.00;34.80;;;;;;5055102;28;20040;-73